sensor_id;sensor_type;location;lat;lon;timestamp;P1;durP1;ratioP1;P2;durP2;ratioP2
62693;SDS011;48759;52.544;13.418;2022-08-21T00:00:09;11.03;;;9.07;;
62693;SDS011;48759;52.544;13.418;2022-08-21T00:02:44;11.17;;;9.17;;
62693;SDS011;48759;52.544;13.418;2022-08-21T00:05:16;15.10;;;11.20;;
62693;SDS011;48759;52.544;13.418;2022-08-21T00:07:43;14.80;;;10.40;;
62693;SDS011;48759;52.544;13.418;2022-08-21T00:10:10;12.13;;;10.93;;
62693;SDS011;48759;52.544;13.418;2022-08-21T00:12:37;18.40;;;11.17;;
62693;SDS011;48759;52.544;13.418;2022-08-21T00:15:06;14.93;;;11.13;;
62693;SDS011;48759;52.544;13.418;2022-08-21T00:17:34;11.50;;;10.30;;
62693;SDS011;48759;52.544;13.418;2022-08-21T00:20:01;14.80;;;10.83;;
62693;SDS011;48759;52.544;13.418;2022-08-21T00:22:31;14.43;;;11.37;;
62693;SDS011;48759;52.544;13.418;2022-08-21T00:24:57;16.67;;;11.03;;
62693;SDS011;48759;52.544;13.418;2022-08-21T00:27:24;13.00;;;10.33;;
62693;SDS011;48759;52.544;13.418;2022-08-21T00:29:50;12.00;;;10.43;;
62693;SDS011;48759;52.544;13.418;2022-08-21T00:32:19;11.63;;;10.43;;
62693;SDS011;48759;52.544;13.418;2022-08-21T00:34:46;18.90;;;10.33;;
62693;SDS011;48759;52.544;13.418;2022-08-21T00:37:13;12.30;;;11.00;;
62693;SDS011;48759;52.544;13.418;2022-08-21T00:39:41;12.23;;;10.40;;
62693;SDS011;48759;52.544;13.418;2022-08-21T00:42:08;17.00;;;11.40;;
62693;SDS011;48759;52.544;13.418;2022-08-21T00:44:34;16.50;;;10.57;;
62693;SDS011;48759;52.544;13.418;2022-08-21T00:47:01;16.20;;;10.60;;
62693;SDS011;48759;52.544;13.418;2022-08-21T00:49:27;14.13;;;10.50;;
62693;SDS011;48759;52.544;13.418;2022-08-21T00:51:55;12.90;;;10.77;;
62693;SDS011;48759;52.544;13.418;2022-08-21T00:54:25;10.83;;;9.73;;
62693;SDS011;48759;52.544;13.418;2022-08-21T00:56:59;21.80;;;10.80;;
62693;SDS011;48759;52.544;13.418;2022-08-21T00:59:28;13.53;;;9.10;;
62693;SDS011;48759;52.544;13.418;2022-08-21T01:01:58;19.13;;;10.50;;
62693;SDS011;48759;52.544;13.418;2022-08-21T01:04:25;25.03;;;10.20;;
62693;SDS011;48759;52.544;13.418;2022-08-21T01:06:52;17.30;;;10.77;;
62693;SDS011;48759;52.544;13.418;2022-08-21T01:09:20;15.67;;;9.87;;
62693;SDS011;48759;52.544;13.418;2022-08-21T01:11:46;15.10;;;10.70;;
62693;SDS011;48759;52.544;13.418;2022-08-21T01:14:15;12.50;;;11.10;;
62693;SDS011;48759;52.544;13.418;2022-08-21T01:16:44;12.57;;;11.30;;
62693;SDS011;48759;52.544;13.418;2022-08-21T01:19:13;11.40;;;10.20;;
62693;SDS011;48759;52.544;13.418;2022-08-21T01:21:43;14.43;;;10.67;;
62693;SDS011;48759;52.544;13.418;2022-08-21T01:24:10;11.37;;;10.17;;
62693;SDS011;48759;52.544;13.418;2022-08-21T01:26:37;12.27;;;10.33;;
62693;SDS011;48759;52.544;13.418;2022-08-21T01:29:05;19.30;;;10.70;;
62693;SDS011;48759;52.544;13.418;2022-08-21T01:31:37;14.03;;;10.50;;
62693;SDS011;48759;52.544;13.418;2022-08-21T01:34:04;16.67;;;11.37;;
62693;SDS011;48759;52.544;13.418;2022-08-21T01:36:31;12.60;;;9.63;;
62693;SDS011;48759;52.544;13.418;2022-08-21T01:39:00;13.50;;;9.87;;
62693;SDS011;48759;52.544;13.418;2022-08-21T01:41:28;11.60;;;8.40;;
62693;SDS011;48759;52.544;13.418;2022-08-21T01:43:54;12.03;;;9.90;;
62693;SDS011;48759;52.544;13.418;2022-08-21T01:46:21;16.33;;;8.97;;
62693;SDS011;48759;52.544;13.418;2022-08-21T01:48:48;13.63;;;8.40;;
62693;SDS011;48759;52.544;13.418;2022-08-21T01:51:15;9.70;;;8.43;;
62693;SDS011;48759;52.544;13.418;2022-08-21T01:53:41;11.03;;;9.40;;
62693;SDS011;48759;52.544;13.418;2022-08-21T01:56:10;10.73;;;8.27;;
62693;SDS011;48759;52.544;13.418;2022-08-21T01:58:39;11.00;;;8.70;;
62693;SDS011;48759;52.544;13.418;2022-08-21T02:01:06;13.67;;;8.03;;
62693;SDS011;48759;52.544;13.418;2022-08-21T02:03:34;13.93;;;8.40;;
62693;SDS011;48759;52.544;13.418;2022-08-21T02:06:01;8.53;;;7.57;;
62693;SDS011;48759;52.544;13.418;2022-08-21T02:08:31;10.10;;;7.53;;
62693;SDS011;48759;52.544;13.418;2022-08-21T02:10:58;12.57;;;8.40;;
62693;SDS011;48759;52.544;13.418;2022-08-21T02:13:26;11.80;;;8.87;;
62693;SDS011;48759;52.544;13.418;2022-08-21T02:15:53;7.80;;;7.00;;
62693;SDS011;48759;52.544;13.418;2022-08-21T02:18:19;12.80;;;8.23;;
62693;SDS011;48759;52.544;13.418;2022-08-21T02:20:47;10.10;;;8.20;;
62693;SDS011;48759;52.544;13.418;2022-08-21T02:23:15;13.83;;;8.10;;
62693;SDS011;48759;52.544;13.418;2022-08-21T02:25:42;9.43;;;7.10;;
62693;SDS011;48759;52.544;13.418;2022-08-21T02:28:11;10.77;;;7.67;;
62693;SDS011;48759;52.544;13.418;2022-08-21T02:30:41;14.10;;;7.17;;
62693;SDS011;48759;52.544;13.418;2022-08-21T02:33:11;11.50;;;7.90;;
62693;SDS011;48759;52.544;13.418;2022-08-21T02:35:38;9.73;;;6.97;;
62693;SDS011;48759;52.544;13.418;2022-08-21T02:38:08;13.00;;;7.50;;
62693;SDS011;48759;52.544;13.418;2022-08-21T02:40:37;10.53;;;6.93;;
62693;SDS011;48759;52.544;13.418;2022-08-21T02:43:06;9.50;;;7.10;;
62693;SDS011;48759;52.544;13.418;2022-08-21T02:45:33;11.40;;;6.83;;
62693;SDS011;48759;52.544;13.418;2022-08-21T02:48:04;12.97;;;6.83;;
62693;SDS011;48759;52.544;13.418;2022-08-21T02:50:32;9.60;;;6.37;;
62693;SDS011;48759;52.544;13.418;2022-08-21T02:53:00;12.73;;;7.00;;
62693;SDS011;48759;52.544;13.418;2022-08-21T02:55:30;13.00;;;7.83;;
62693;SDS011;48759;52.544;13.418;2022-08-21T02:57:57;10.97;;;6.23;;
62693;SDS011;48759;52.544;13.418;2022-08-21T03:00:26;15.77;;;6.93;;
62693;SDS011;48759;52.544;13.418;2022-08-21T03:02:56;12.37;;;6.73;;
62693;SDS011;48759;52.544;13.418;2022-08-21T03:05:25;12.07;;;6.50;;
62693;SDS011;48759;52.544;13.418;2022-08-21T03:07:53;6.80;;;6.10;;
62693;SDS011;48759;52.544;13.418;2022-08-21T03:10:20;8.50;;;6.17;;
62693;SDS011;48759;52.544;13.418;2022-08-21T03:12:48;11.60;;;5.37;;
62693;SDS011;48759;52.544;13.418;2022-08-21T03:15:16;7.00;;;5.70;;
62693;SDS011;48759;52.544;13.418;2022-08-21T03:17:45;8.43;;;5.90;;
62693;SDS011;48759;52.544;13.418;2022-08-21T03:20:12;11.33;;;6.13;;
62693;SDS011;48759;52.544;13.418;2022-08-21T03:22:43;9.43;;;5.73;;
62693;SDS011;48759;52.544;13.418;2022-08-21T03:25:09;13.77;;;6.20;;
62693;SDS011;48759;52.544;13.418;2022-08-21T03:27:36;16.93;;;6.13;;
62693;SDS011;48759;52.544;13.418;2022-08-21T03:30:04;9.13;;;5.40;;
62693;SDS011;48759;52.544;13.418;2022-08-21T03:32:32;8.77;;;5.90;;
62693;SDS011;48759;52.544;13.418;2022-08-21T03:35:00;8.10;;;5.40;;
62693;SDS011;48759;52.544;13.418;2022-08-21T03:37:27;14.83;;;6.70;;
62693;SDS011;48759;52.544;13.418;2022-08-21T03:39:55;9.67;;;6.77;;
62693;SDS011;48759;52.544;13.418;2022-08-21T03:42:22;15.70;;;5.93;;
62693;SDS011;48759;52.544;13.418;2022-08-21T03:44:49;8.43;;;5.77;;
62693;SDS011;48759;52.544;13.418;2022-08-21T03:47:15;12.07;;;5.60;;
62693;SDS011;48759;52.544;13.418;2022-08-21T03:49:42;9.57;;;6.70;;
62693;SDS011;48759;52.544;13.418;2022-08-21T03:52:08;6.53;;;5.70;;
62693;SDS011;48759;52.544;13.418;2022-08-21T03:54:35;9.60;;;6.60;;
62693;SDS011;48759;52.544;13.418;2022-08-21T03:57:03;12.00;;;6.80;;
62693;SDS011;48759;52.544;13.418;2022-08-21T03:59:29;7.03;;;5.27;;
62693;SDS011;48759;52.544;13.418;2022-08-21T04:01:56;10.53;;;5.70;;
62693;SDS011;48759;52.544;13.418;2022-08-21T04:04:24;12.03;;;6.40;;
62693;SDS011;48759;52.544;13.418;2022-08-21T04:06:52;11.93;;;6.00;;
62693;SDS011;48759;52.544;13.418;2022-08-21T04:09:19;12.63;;;6.00;;
62693;SDS011;48759;52.544;13.418;2022-08-21T04:11:45;8.57;;;6.00;;
62693;SDS011;48759;52.544;13.418;2022-08-21T04:14:14;7.07;;;5.33;;
62693;SDS011;48759;52.544;13.418;2022-08-21T04:16:41;14.23;;;5.50;;
62693;SDS011;48759;52.544;13.418;2022-08-21T04:19:08;8.07;;;4.80;;
62693;SDS011;48759;52.544;13.418;2022-08-21T04:21:35;8.80;;;5.17;;
62693;SDS011;48759;52.544;13.418;2022-08-21T04:24:03;5.70;;;4.33;;
62693;SDS011;48759;52.544;13.418;2022-08-21T04:26:30;6.37;;;4.37;;
62693;SDS011;48759;52.544;13.418;2022-08-21T04:28:58;12.83;;;4.50;;
62693;SDS011;48759;52.544;13.418;2022-08-21T04:31:26;10.50;;;5.53;;
62693;SDS011;48759;52.544;13.418;2022-08-21T04:33:54;11.53;;;4.80;;
62693;SDS011;48759;52.544;13.418;2022-08-21T04:36:21;6.27;;;4.17;;
62693;SDS011;48759;52.544;13.418;2022-08-21T04:38:48;9.47;;;4.60;;
62693;SDS011;48759;52.544;13.418;2022-08-21T04:41:15;8.43;;;4.43;;
62693;SDS011;48759;52.544;13.418;2022-08-21T04:43:41;7.80;;;4.30;;
62693;SDS011;48759;52.544;13.418;2022-08-21T04:46:08;7.77;;;5.00;;
62693;SDS011;48759;52.544;13.418;2022-08-21T04:48:37;13.63;;;5.20;;
62693;SDS011;48759;52.544;13.418;2022-08-21T04:51:05;7.30;;;4.10;;
62693;SDS011;48759;52.544;13.418;2022-08-21T04:53:38;8.53;;;4.73;;
62693;SDS011;48759;52.544;13.418;2022-08-21T04:56:07;11.33;;;4.60;;
62693;SDS011;48759;52.544;13.418;2022-08-21T04:58:39;7.23;;;5.13;;
62693;SDS011;48759;52.544;13.418;2022-08-21T05:01:09;8.00;;;4.30;;
62693;SDS011;48759;52.544;13.418;2022-08-21T05:03:40;9.80;;;4.50;;
62693;SDS011;48759;52.544;13.418;2022-08-21T05:06:09;10.13;;;4.60;;
62693;SDS011;48759;52.544;13.418;2022-08-21T05:08:38;10.63;;;5.73;;
62693;SDS011;48759;52.544;13.418;2022-08-21T05:11:07;13.50;;;4.57;;
62693;SDS011;48759;52.544;13.418;2022-08-21T05:13:34;9.33;;;4.00;;
62693;SDS011;48759;52.544;13.418;2022-08-21T05:16:01;7.47;;;5.17;;
62693;SDS011;48759;52.544;13.418;2022-08-21T05:18:28;8.07;;;4.30;;
62693;SDS011;48759;52.544;13.418;2022-08-21T05:20:56;9.13;;;4.10;;
62693;SDS011;48759;52.544;13.418;2022-08-21T05:23:22;12.83;;;4.73;;
62693;SDS011;48759;52.544;13.418;2022-08-21T05:25:49;6.97;;;4.10;;
62693;SDS011;48759;52.544;13.418;2022-08-21T05:28:17;7.93;;;4.50;;
62693;SDS011;48759;52.544;13.418;2022-08-21T05:30:44;9.33;;;3.93;;
62693;SDS011;48759;52.544;13.418;2022-08-21T05:33:11;7.50;;;4.10;;
62693;SDS011;48759;52.544;13.418;2022-08-21T05:35:37;7.00;;;3.57;;
62693;SDS011;48759;52.544;13.418;2022-08-21T05:38:06;8.90;;;3.70;;
62693;SDS011;48759;52.544;13.418;2022-08-21T05:40:33;6.77;;;3.97;;
62693;SDS011;48759;52.544;13.418;2022-08-21T05:42:59;7.67;;;4.30;;
62693;SDS011;48759;52.544;13.418;2022-08-21T05:45:27;6.30;;;3.93;;
62693;SDS011;48759;52.544;13.418;2022-08-21T05:47:55;5.20;;;3.70;;
62693;SDS011;48759;52.544;13.418;2022-08-21T05:50:21;10.10;;;3.63;;
62693;SDS011;48759;52.544;13.418;2022-08-21T05:52:48;12.87;;;5.17;;
62693;SDS011;48759;52.544;13.418;2022-08-21T05:55:16;9.27;;;3.47;;
62693;SDS011;48759;52.544;13.418;2022-08-21T05:57:42;12.03;;;3.60;;
62693;SDS011;48759;52.544;13.418;2022-08-21T06:00:09;8.90;;;3.87;;
62693;SDS011;48759;52.544;13.418;2022-08-21T06:02:37;9.00;;;3.10;;
62693;SDS011;48759;52.544;13.418;2022-08-21T06:05:04;8.77;;;4.10;;
62693;SDS011;48759;52.544;13.418;2022-08-21T06:07:31;9.40;;;4.17;;
62693;SDS011;48759;52.544;13.418;2022-08-21T06:09:58;6.83;;;3.53;;
62693;SDS011;48759;52.544;13.418;2022-08-21T06:12:26;10.13;;;3.63;;
62693;SDS011;48759;52.544;13.418;2022-08-21T06:14:52;9.50;;;3.77;;
62693;SDS011;48759;52.544;13.418;2022-08-21T06:17:19;4.57;;;3.37;;
62693;SDS011;48759;52.544;13.418;2022-08-21T06:19:49;7.77;;;3.20;;
62693;SDS011;48759;52.544;13.418;2022-08-21T06:22:17;11.10;;;4.23;;
62693;SDS011;48759;52.544;13.418;2022-08-21T06:24:43;4.77;;;2.90;;
62693;SDS011;48759;52.544;13.418;2022-08-21T06:27:10;10.70;;;3.40;;
62693;SDS011;48759;52.544;13.418;2022-08-21T06:29:38;10.77;;;3.43;;
62693;SDS011;48759;52.544;13.418;2022-08-21T06:32:05;10.73;;;3.47;;
62693;SDS011;48759;52.544;13.418;2022-08-21T06:34:35;8.67;;;3.60;;
62693;SDS011;48759;52.544;13.418;2022-08-21T06:37:02;8.20;;;3.60;;
62693;SDS011;48759;52.544;13.418;2022-08-21T06:39:29;8.10;;;4.40;;
62693;SDS011;48759;52.544;13.418;2022-08-21T06:41:56;7.00;;;3.93;;
62693;SDS011;48759;52.544;13.418;2022-08-21T06:44:22;8.40;;;3.50;;
62693;SDS011;48759;52.544;13.418;2022-08-21T06:46:50;12.00;;;3.87;;
62693;SDS011;48759;52.544;13.418;2022-08-21T06:49:17;7.63;;;3.30;;
62693;SDS011;48759;52.544;13.418;2022-08-21T06:51:43;12.90;;;3.70;;
62693;SDS011;48759;52.544;13.418;2022-08-21T06:54:10;9.57;;;3.70;;
62693;SDS011;48759;52.544;13.418;2022-08-21T06:56:37;10.70;;;4.00;;
62693;SDS011;48759;52.544;13.418;2022-08-21T06:59:03;7.00;;;3.77;;
62693;SDS011;48759;52.544;13.418;2022-08-21T07:01:31;14.43;;;4.00;;
62693;SDS011;48759;52.544;13.418;2022-08-21T07:03:59;9.33;;;3.70;;
62693;SDS011;48759;52.544;13.418;2022-08-21T07:06:25;11.13;;;3.80;;
62693;SDS011;48759;52.544;13.418;2022-08-21T07:08:52;9.30;;;3.30;;
62693;SDS011;48759;52.544;13.418;2022-08-21T07:11:19;6.07;;;3.67;;
62693;SDS011;48759;52.544;13.418;2022-08-21T07:13:47;7.73;;;3.57;;
62693;SDS011;48759;52.544;13.418;2022-08-21T07:16:14;7.30;;;3.03;;
62693;SDS011;48759;52.544;13.418;2022-08-21T07:18:40;8.60;;;3.80;;
62693;SDS011;48759;52.544;13.418;2022-08-21T07:21:08;19.37;;;3.67;;
62693;SDS011;48759;52.544;13.418;2022-08-21T07:23:38;6.37;;;2.50;;
62693;SDS011;48759;52.544;13.418;2022-08-21T07:26:06;9.63;;;3.00;;
62693;SDS011;48759;52.544;13.418;2022-08-21T07:28:33;5.80;;;2.60;;
62693;SDS011;48759;52.544;13.418;2022-08-21T07:31:00;9.63;;;3.03;;
62693;SDS011;48759;52.544;13.418;2022-08-21T07:33:28;8.17;;;2.70;;
62693;SDS011;48759;52.544;13.418;2022-08-21T07:35:56;5.80;;;2.77;;
62693;SDS011;48759;52.544;13.418;2022-08-21T07:38:25;6.07;;;2.60;;
62693;SDS011;48759;52.544;13.418;2022-08-21T07:40:52;3.57;;;2.30;;
62693;SDS011;48759;52.544;13.418;2022-08-21T07:43:20;6.07;;;2.67;;
62693;SDS011;48759;52.544;13.418;2022-08-21T07:45:47;8.37;;;2.60;;
62693;SDS011;48759;52.544;13.418;2022-08-21T07:48:14;5.40;;;3.27;;
62693;SDS011;48759;52.544;13.418;2022-08-21T07:50:41;6.30;;;2.70;;
62693;SDS011;48759;52.544;13.418;2022-08-21T07:53:09;5.73;;;2.60;;
62693;SDS011;48759;52.544;13.418;2022-08-21T07:55:37;8.53;;;3.07;;
62693;SDS011;48759;52.544;13.418;2022-08-21T07:58:04;7.20;;;2.50;;
62693;SDS011;48759;52.544;13.418;2022-08-21T08:00:31;4.17;;;2.10;;
62693;SDS011;48759;52.544;13.418;2022-08-21T08:02:59;4.43;;;2.23;;
62693;SDS011;48759;52.544;13.418;2022-08-21T08:05:27;5.47;;;2.70;;
62693;SDS011;48759;52.544;13.418;2022-08-21T08:07:55;7.70;;;2.57;;
62693;SDS011;48759;52.544;13.418;2022-08-21T08:10:22;11.43;;;3.00;;
62693;SDS011;48759;52.544;13.418;2022-08-21T08:12:50;4.23;;;2.17;;
62693;SDS011;48759;52.544;13.418;2022-08-21T08:15:21;7.43;;;2.50;;
62693;SDS011;48759;52.544;13.418;2022-08-21T08:17:50;8.43;;;2.57;;
62693;SDS011;48759;52.544;13.418;2022-08-21T08:20:17;7.40;;;2.53;;
62693;SDS011;48759;52.544;13.418;2022-08-21T08:22:45;8.93;;;2.50;;
62693;SDS011;48759;52.544;13.418;2022-08-21T08:25:12;7.57;;;2.00;;
62693;SDS011;48759;52.544;13.418;2022-08-21T08:27:40;8.83;;;2.80;;
62693;SDS011;48759;52.544;13.418;2022-08-21T08:30:09;9.07;;;2.77;;
62693;SDS011;48759;52.544;13.418;2022-08-21T08:32:38;3.40;;;2.00;;
62693;SDS011;48759;52.544;13.418;2022-08-21T08:35:05;4.53;;;2.10;;
62693;SDS011;48759;52.544;13.418;2022-08-21T08:37:32;6.90;;;2.83;;
62693;SDS011;48759;52.544;13.418;2022-08-21T08:40:02;7.77;;;2.50;;
62693;SDS011;48759;52.544;13.418;2022-08-21T08:42:32;7.10;;;2.50;;
62693;SDS011;48759;52.544;13.418;2022-08-21T08:44:59;7.60;;;2.40;;
62693;SDS011;48759;52.544;13.418;2022-08-21T08:47:30;7.93;;;2.50;;
62693;SDS011;48759;52.544;13.418;2022-08-21T08:50:00;7.70;;;2.80;;
62693;SDS011;48759;52.544;13.418;2022-08-21T08:52:31;8.90;;;2.50;;
62693;SDS011;48759;52.544;13.418;2022-08-21T08:55:01;6.40;;;2.17;;
62693;SDS011;48759;52.544;13.418;2022-08-21T08:57:30;4.40;;;1.97;;
62693;SDS011;48759;52.544;13.418;2022-08-21T08:59:59;8.77;;;2.60;;
62693;SDS011;48759;52.544;13.418;2022-08-21T09:02:27;6.77;;;2.90;;
62693;SDS011;48759;52.544;13.418;2022-08-21T09:04:58;7.43;;;2.93;;
62693;SDS011;48759;52.544;13.418;2022-08-21T09:07:28;8.30;;;2.70;;
62693;SDS011;48759;52.544;13.418;2022-08-21T09:10:06;6.70;;;2.47;;
62693;SDS011;48759;52.544;13.418;2022-08-21T09:12:45;9.37;;;2.50;;
62693;SDS011;48759;52.544;13.418;2022-08-21T09:15:23;4.23;;;2.80;;
62693;SDS011;48759;52.544;13.418;2022-08-21T09:17:59;4.80;;;2.50;;
62693;SDS011;48759;52.544;13.418;2022-08-21T09:20:50;5.37;;;2.33;;
62693;SDS011;48759;52.544;13.418;2022-08-21T09:23:28;7.50;;;2.50;;
62693;SDS011;48759;52.544;13.418;2022-08-21T09:26:04;4.63;;;2.20;;
62693;SDS011;48759;52.544;13.418;2022-08-21T09:28:37;8.83;;;2.53;;
62693;SDS011;48759;52.544;13.418;2022-08-21T09:31:05;9.70;;;2.90;;
62693;SDS011;48759;52.544;13.418;2022-08-21T09:33:34;6.83;;;2.50;;
62693;SDS011;48759;52.544;13.418;2022-08-21T09:36:02;7.10;;;4.23;;
62693;SDS011;48759;52.544;13.418;2022-08-21T09:38:30;6.77;;;2.23;;
62693;SDS011;48759;52.544;13.418;2022-08-21T09:41:01;8.33;;;2.70;;
62693;SDS011;48759;52.544;13.418;2022-08-21T09:43:29;8.10;;;2.67;;
62693;SDS011;48759;52.544;13.418;2022-08-21T09:46:08;5.77;;;2.40;;
62693;SDS011;48759;52.544;13.418;2022-08-21T09:48:40;4.60;;;2.40;;
62693;SDS011;48759;52.544;13.418;2022-08-21T09:51:11;7.87;;;2.87;;
62693;SDS011;48759;52.544;13.418;2022-08-21T09:53:43;6.57;;;2.60;;
62693;SDS011;48759;52.544;13.418;2022-08-21T09:56:18;10.80;;;2.47;;
62693;SDS011;48759;52.544;13.418;2022-08-21T09:59:13;5.13;;;2.67;;
62693;SDS011;48759;52.544;13.418;2022-08-21T10:01:48;8.87;;;2.60;;
62693;SDS011;48759;52.544;13.418;2022-08-21T10:04:19;4.17;;;2.20;;
62693;SDS011;48759;52.544;13.418;2022-08-21T10:06:49;6.17;;;2.33;;
62693;SDS011;48759;52.544;13.418;2022-08-21T10:09:17;4.17;;;2.00;;
62693;SDS011;48759;52.544;13.418;2022-08-21T10:11:47;7.27;;;2.60;;
62693;SDS011;48759;52.544;13.418;2022-08-21T10:14:20;6.63;;;2.67;;
62693;SDS011;48759;52.544;13.418;2022-08-21T10:16:59;3.57;;;2.03;;
62693;SDS011;48759;52.544;13.418;2022-08-21T10:19:32;5.80;;;3.00;;
62693;SDS011;48759;52.544;13.418;2022-08-21T10:22:18;10.17;;;2.67;;
62693;SDS011;48759;52.544;13.418;2022-08-21T10:24:56;8.47;;;2.80;;
62693;SDS011;48759;52.544;13.418;2022-08-21T10:27:30;5.23;;;2.73;;
62693;SDS011;48759;52.544;13.418;2022-08-21T10:30:04;5.93;;;2.63;;
62693;SDS011;48759;52.544;13.418;2022-08-21T10:32:47;9.10;;;3.03;;
62693;SDS011;48759;52.544;13.418;2022-08-21T10:35:26;10.77;;;2.87;;
62693;SDS011;48759;52.544;13.418;2022-08-21T10:38:01;6.93;;;2.67;;
62693;SDS011;48759;52.544;13.418;2022-08-21T10:40:46;11.17;;;2.80;;
62693;SDS011;48759;52.544;13.418;2022-08-21T10:43:23;6.63;;;2.53;;
62693;SDS011;48759;52.544;13.418;2022-08-21T10:46:00;6.43;;;3.00;;
62693;SDS011;48759;52.544;13.418;2022-08-21T10:48:34;4.17;;;2.10;;
62693;SDS011;48759;52.544;13.418;2022-08-21T10:51:05;5.40;;;2.03;;
62693;SDS011;48759;52.544;13.418;2022-08-21T10:53:47;4.70;;;2.60;;
62693;SDS011;48759;52.544;13.418;2022-08-21T10:56:24;5.63;;;2.00;;
62693;SDS011;48759;52.544;13.418;2022-08-21T11:01:53;3.70;;;2.33;;
62693;SDS011;48759;52.544;13.418;2022-08-21T11:04:25;8.63;;;2.50;;
62693;SDS011;48759;52.544;13.418;2022-08-21T11:06:58;5.27;;;2.53;;
62693;SDS011;48759;52.544;13.418;2022-08-21T11:09:29;5.03;;;2.13;;
62693;SDS011;48759;52.544;13.418;2022-08-21T11:11:58;4.60;;;2.47;;
62693;SDS011;48759;52.544;13.418;2022-08-21T11:14:37;3.93;;;2.30;;
62693;SDS011;48759;52.544;13.418;2022-08-21T11:17:08;5.50;;;2.00;;
62693;SDS011;48759;52.544;13.418;2022-08-21T11:19:38;2.83;;;2.00;;
62693;SDS011;48759;52.544;13.418;2022-08-21T11:22:13;7.80;;;2.80;;
62693;SDS011;48759;52.544;13.418;2022-08-21T11:24:46;10.90;;;2.13;;
62693;SDS011;48759;52.544;13.418;2022-08-21T11:27:21;4.57;;;2.37;;
62693;SDS011;48759;52.544;13.418;2022-08-21T11:29:52;5.17;;;2.13;;
62693;SDS011;48759;52.544;13.418;2022-08-21T11:32:24;4.73;;;2.00;;
62693;SDS011;48759;52.544;13.418;2022-08-21T11:35:06;3.27;;;2.00;;
62693;SDS011;48759;52.544;13.418;2022-08-21T11:37:45;3.00;;;1.80;;
62693;SDS011;48759;52.544;13.418;2022-08-21T11:40:24;3.57;;;1.77;;
62693;SDS011;48759;52.544;13.418;2022-08-21T11:43:05;6.20;;;2.17;;
62693;SDS011;48759;52.544;13.418;2022-08-21T11:45:39;3.27;;;1.80;;
62693;SDS011;48759;52.544;13.418;2022-08-21T11:48:13;9.97;;;2.07;;
62693;SDS011;48759;52.544;13.418;2022-08-21T11:50:52;2.30;;;1.57;;
62693;SDS011;48759;52.544;13.418;2022-08-21T11:53:23;4.63;;;2.20;;
62693;SDS011;48759;52.544;13.418;2022-08-21T11:55:58;2.83;;;1.70;;
62693;SDS011;48759;52.544;13.418;2022-08-21T11:58:30;2.30;;;1.73;;
62693;SDS011;48759;52.544;13.418;2022-08-21T12:01:03;2.03;;;1.40;;
62693;SDS011;48759;52.544;13.418;2022-08-21T12:03:34;2.90;;;1.60;;
62693;SDS011;48759;52.544;13.418;2022-08-21T12:06:04;2.90;;;2.00;;
62693;SDS011;48759;52.544;13.418;2022-08-21T12:08:33;2.43;;;1.43;;
62693;SDS011;48759;52.544;13.418;2022-08-21T12:11:04;2.33;;;1.90;;
62693;SDS011;48759;52.544;13.418;2022-08-21T12:13:33;3.77;;;1.57;;
62693;SDS011;48759;52.544;13.418;2022-08-21T12:16:05;2.83;;;1.87;;
62693;SDS011;48759;52.544;13.418;2022-08-21T12:18:33;2.33;;;1.70;;
62693;SDS011;48759;52.544;13.418;2022-08-21T12:21:04;3.30;;;2.13;;
62693;SDS011;48759;52.544;13.418;2022-08-21T12:23:44;2.20;;;1.30;;
62693;SDS011;48759;52.544;13.418;2022-08-21T12:26:24;2.97;;;1.90;;
62693;SDS011;48759;52.544;13.418;2022-08-21T12:29:07;4.80;;;1.70;;
62693;SDS011;48759;52.544;13.418;2022-08-21T12:31:47;2.73;;;1.97;;
62693;SDS011;48759;52.544;13.418;2022-08-21T12:34:16;5.80;;;2.00;;
62693;SDS011;48759;52.544;13.418;2022-08-21T12:36:45;4.67;;;1.80;;
62693;SDS011;48759;52.544;13.418;2022-08-21T12:39:17;3.30;;;2.10;;
62693;SDS011;48759;52.544;13.418;2022-08-21T12:41:51;4.90;;;1.53;;
62693;SDS011;48759;52.544;13.418;2022-08-21T12:44:34;5.30;;;1.97;;
62693;SDS011;48759;52.544;13.418;2022-08-21T12:47:05;5.03;;;2.10;;
62693;SDS011;48759;52.544;13.418;2022-08-21T12:49:43;1.80;;;1.70;;
62693;SDS011;48759;52.544;13.418;2022-08-21T12:52:19;1.93;;;1.60;;
62693;SDS011;48759;52.544;13.418;2022-08-21T12:54:48;2.07;;;1.67;;
62693;SDS011;48759;52.544;13.418;2022-08-21T12:57:19;3.80;;;1.50;;
62693;SDS011;48759;52.544;13.418;2022-08-21T12:59:54;2.37;;;1.70;;
62693;SDS011;48759;52.544;13.418;2022-08-21T13:02:24;3.27;;;1.70;;
62693;SDS011;48759;52.544;13.418;2022-08-21T13:04:54;2.70;;;1.90;;
62693;SDS011;48759;52.544;13.418;2022-08-21T13:07:24;3.27;;;1.83;;
62693;SDS011;48759;52.544;13.418;2022-08-21T13:09:55;4.87;;;1.70;;
62693;SDS011;48759;52.544;13.418;2022-08-21T13:12:25;2.53;;;2.10;;
62693;SDS011;48759;52.544;13.418;2022-08-21T13:14:55;3.77;;;1.53;;
62693;SDS011;48759;52.544;13.418;2022-08-21T13:17:24;2.47;;;2.00;;
62693;SDS011;48759;52.544;13.418;2022-08-21T13:19:56;5.77;;;2.00;;
62693;SDS011;48759;52.544;13.418;2022-08-21T13:22:25;4.47;;;2.00;;
62693;SDS011;48759;52.544;13.418;2022-08-21T13:24:52;2.80;;;1.90;;
62693;SDS011;48759;52.544;13.418;2022-08-21T13:27:20;3.63;;;2.10;;
62693;SDS011;48759;52.544;13.418;2022-08-21T13:30:01;3.00;;;2.00;;
62693;SDS011;48759;52.544;13.418;2022-08-21T13:32:31;4.20;;;1.97;;
62693;SDS011;48759;52.544;13.418;2022-08-21T13:35:07;3.10;;;2.07;;
62693;SDS011;48759;52.544;13.418;2022-08-21T13:37:35;4.57;;;2.53;;
62693;SDS011;48759;52.544;13.418;2022-08-21T13:40:06;7.37;;;1.70;;
62693;SDS011;48759;52.544;13.418;2022-08-21T13:42:35;4.10;;;2.20;;
62693;SDS011;48759;52.544;13.418;2022-08-21T13:45:10;6.70;;;2.23;;
62693;SDS011;48759;52.544;13.418;2022-08-21T13:47:39;3.40;;;2.20;;
62693;SDS011;48759;52.544;13.418;2022-08-21T13:50:06;7.50;;;2.60;;
62693;SDS011;48759;52.544;13.418;2022-08-21T13:52:33;3.27;;;2.13;;
62693;SDS011;48759;52.544;13.418;2022-08-21T13:55:15;7.70;;;2.40;;
62693;SDS011;48759;52.544;13.418;2022-08-21T13:57:42;4.13;;;2.57;;
62693;SDS011;48759;52.544;13.418;2022-08-21T14:00:11;4.50;;;2.77;;
62693;SDS011;48759;52.544;13.418;2022-08-21T14:02:41;6.67;;;2.93;;
62693;SDS011;48759;52.544;13.418;2022-08-21T14:05:14;5.77;;;2.80;;
62693;SDS011;48759;52.544;13.418;2022-08-21T14:07:45;6.03;;;3.13;;
62693;SDS011;48759;52.544;13.418;2022-08-21T14:10:13;5.97;;;2.80;;
62693;SDS011;48759;52.544;13.418;2022-08-21T14:12:43;5.33;;;3.43;;
62693;SDS011;48759;52.544;13.418;2022-08-21T14:15:22;5.40;;;2.80;;
62693;SDS011;48759;52.544;13.418;2022-08-21T14:17:53;5.50;;;2.63;;
62693;SDS011;48759;52.544;13.418;2022-08-21T14:20:34;7.23;;;2.53;;
62693;SDS011;48759;52.544;13.418;2022-08-21T14:23:02;5.00;;;2.80;;
62693;SDS011;48759;52.544;13.418;2022-08-21T14:25:29;6.17;;;2.40;;
62693;SDS011;48759;52.544;13.418;2022-08-21T14:28:03;9.40;;;2.67;;
62693;SDS011;48759;52.544;13.418;2022-08-21T14:30:43;7.40;;;2.90;;
62693;SDS011;48759;52.544;13.418;2022-08-21T14:33:11;5.70;;;2.60;;
62693;SDS011;48759;52.544;13.418;2022-08-21T14:35:39;7.67;;;2.93;;
62693;SDS011;48759;52.544;13.418;2022-08-21T14:38:11;11.43;;;2.80;;
62693;SDS011;48759;52.544;13.418;2022-08-21T14:40:40;5.67;;;2.83;;
62693;SDS011;48759;52.544;13.418;2022-08-21T14:43:12;5.10;;;2.80;;
62693;SDS011;48759;52.544;13.418;2022-08-21T14:45:42;3.47;;;2.50;;